Aviation Digital Data Service (ADDS)

Output produced by METARs form (0447 UTC 22 April 2018)
found at http://aviationweather.gov/adds/metars/
 
LFLY 220430Z AUTO 00000KT CAVOK 12/08 Q1017 NOSIG